Time;durP1;ratioP1;P1;durP2;ratioP2;P2;SDS_P1;SDS_P2;PMS_P1;PMS_P2;Temp;Humidity;BMP_temperature;BMP_pressure;BME280_temperature;BME280_humidity;BME280_pressure;Samples;Min_cycle;Max_cycle;Signal;HPM_P1;HPM_P2
2022/01/10 00:01:28;;;;;;;16.17;5.75;;;;;;;0.13;100.00;97902.66;4093346;28;20510;-71
2022/01/10 00:03:28;;;;;;;15.52;6.28;;;;;;;0.16;100.00;97904.72;4091875;28;20054;-72
2022/01/10 00:05:29;;;;;;;10.35;5.68;;;;;;;0.18;100.00;97907.94;4090846;28;20526;-72
2022/01/10 00:07:29;;;;;;;9.48;5.75;;;;;;;0.17;100.00;97911.78;4091284;28;20443;-72
2022/01/10 00:09:29;;;;;;;11.15;5.30;;;;;;;0.18;100.00;97912.59;4096072;28;20043;-72
2022/01/10 00:11:30;;;;;;;13.90;6.13;;;;;;;0.20;100.00;97921.22;4088645;28;20134;-72
2022/01/10 00:13:30;;;;;;;9.60;5.03;;;;;;;0.22;100.00;97921.69;4093594;28;20050;-72
2022/01/10 00:15:31;;;;;;;8.77;5.07;;;;;;;0.26;100.00;97911.78;4092208;28;20039;-72
2022/01/10 00:17:31;;;;;;;10.07;5.85;;;;;;;0.29;100.00;97924.72;4089191;28;20143;-72
2022/01/10 00:19:32;;;;;;;11.88;5.25;;;;;;;0.32;100.00;97931.41;4094202;28;20082;-72
2022/01/10 00:21:32;;;;;;;10.23;5.05;;;;;;;0.38;100.00;97932.84;4092433;28;20047;-72
2022/01/10 00:23:34;;;;;;;10.32;4.63;;;;;;;0.43;100.00;97933.50;4092076;28;20051;-72
2022/01/10 00:25:35;;;;;;;10.38;4.53;;;;;;;0.44;100.00;97937.00;4093336;28;20047;-72
2022/01/10 00:27:35;;;;;;;6.70;4.43;;;;;;;0.50;100.00;97941.97;4090382;28;20108;-72
2022/01/10 00:29:36;;;;;;;10.23;4.97;;;;;;;0.50;100.00;97946.59;4089526;28;20124;-72
2022/01/10 00:31:36;;;;;;;9.02;4.75;;;;;;;0.54;100.00;97961.94;4089487;28;20435;-72
2022/01/10 00:33:36;;;;;;;8.55;4.82;;;;;;;0.56;100.00;97956.97;4089811;28;20444;-72
2022/01/10 00:35:37;;;;;;;8.95;4.53;;;;;;;0.54;100.00;97961.16;4088948;28;20082;-72
2022/01/10 00:37:41;;;;;;;8.82;4.82;;;;;;;0.56;100.00;97959.69;4090212;28;20514;-72
2022/01/10 00:39:41;;;;;;;8.05;4.72;;;;;;;0.60;100.00;97965.31;4088615;28;20221;-72
2022/01/10 00:41:42;;;;;;;9.93;5.10;;;;;;;0.64;100.00;97960.00;4089622;28;20371;-72
2022/01/10 00:43:46;;;;;;;8.70;4.55;;;;;;;0.62;100.00;97967.69;4094358;28;20075;-72
2022/01/10 00:45:46;;;;;;;8.75;4.32;;;;;;;0.60;99.76;97973.47;4104957;28;20188;-71
2022/01/10 00:47:46;;;;;;;10.85;5.00;;;;;;;0.57;100.00;97977.63;4093553;28;20051;-72
2022/01/10 00:49:47;;;;;;;6.65;4.07;;;;;;;0.56;100.00;97984.19;4092553;28;20134;-72
2022/01/10 00:51:47;;;;;;;5.78;3.97;;;;;;;0.57;100.00;97991.22;4089089;28;20051;-72
2022/01/10 00:53:50;;;;;;;9.70;4.63;;;;;;;0.55;99.74;97990.75;4088287;28;20499;-72
2022/01/10 00:55:51;;;;;;;9.52;4.60;;;;;;;0.54;99.28;97993.81;4088818;28;20219;-72
2022/01/10 00:57:51;;;;;;;7.25;4.70;;;;;;;0.57;99.08;97999.41;4088715;28;20473;-72
2022/01/10 00:59:51;;;;;;;8.25;4.05;;;;;;;0.54;99.73;98004.69;4089992;28;20044;-72
2022/01/10 01:01:52;;;;;;;9.00;5.03;;;;;;;0.54;99.52;98000.06;4089250;28;20065;-72
2022/01/10 01:03:52;;;;;;;7.40;4.50;;;;;;;0.52;100.00;98001.50;4088664;28;20449;-72
2022/01/10 01:05:52;;;;;;;11.48;4.90;;;;;;;0.51;100.00;98010.81;4088827;28;20498;-71
2022/01/10 01:07:53;;;;;;;10.15;5.00;;;;;;;0.49;100.00;98010.31;4088675;28;20121;-72
2022/01/10 01:10:08;;;;;;;8.43;4.47;;;;;;;0.48;100.00;98008.72;4096459;28;20135;-71
2022/01/10 01:12:18;;;;;;;9.02;4.72;;;;;;;0.44;100.00;98013.22;4088668;28;20062;-72
2022/01/10 01:14:26;;;;;;;7.85;4.57;;;;;;;0.48;100.00;98017.69;4089020;28;20035;-72
2022/01/10 01:20:45;;;;;;;6.72;4.53;;;;;;;0.50;100.00;98033.72;4097538;28;20381;-72
2022/01/10 01:25:05;;;;;;;7.40;3.85;;;;;;;0.51;100.00;98043.47;4090353;28;20310;-72
2022/01/10 01:27:06;;;;;;;9.20;4.70;;;;;;;0.55;100.00;98047.13;4097354;28;20075;-72
2022/01/10 01:29:09;;;;;;;6.60;4.25;;;;;;;0.54;100.00;98045.53;4096529;28;20050;-72
2022/01/10 01:31:09;;;;;;;8.35;4.55;;;;;;;0.50;100.00;98045.41;4089486;28;20088;-72
2022/01/10 01:33:10;;;;;;;10.35;4.85;;;;;;;0.51;100.00;98040.75;4088997;28;20043;-72
2022/01/10 01:35:10;;;;;;;8.45;4.88;;;;;;;0.50;100.00;98047.31;4092232;28;20134;-72
2022/01/10 01:37:11;;;;;;;9.40;4.65;;;;;;;0.49;100.00;98046.50;4088262;28;20040;-72
2022/01/10 01:39:21;;;;;;;8.32;4.78;;;;;;;0.51;100.00;98057.09;4088858;28;20483;-72
2022/01/10 01:43:31;;;;;;;7.93;4.70;;;;;;;0.47;100.00;98054.19;4089094;28;20063;-72
2022/01/10 01:45:41;;;;;;;14.68;5.05;;;;;;;0.47;100.00;98058.84;4088755;28;20065;-72
2022/01/10 01:47:43;;;;;;;7.88;4.80;;;;;;;0.49;100.00;98059.31;4088331;28;20940;-72
2022/01/10 01:49:43;;;;;;;7.45;4.10;;;;;;;0.51;100.00;98067.97;4091949;28;20130;-72
2022/01/10 01:51:44;;;;;;;9.75;3.83;;;;;;;0.52;100.00;98061.41;4088240;28;20079;-72
2022/01/10 01:53:46;;;;;;;7.07;4.32;;;;;;;0.58;100.00;98068.28;4088316;28;20066;-72
2022/01/10 01:55:46;;;;;;;6.40;4.73;;;;;;;0.67;100.00;98073.72;4090053;28;20065;-72
2022/01/10 01:57:47;;;;;;;10.48;5.13;;;;;;;0.69;100.00;98071.47;4100847;28;20047;-72
2022/01/10 01:59:48;;;;;;;11.98;5.13;;;;;;;0.65;100.00;98065.84;4092789;28;20486;-72
2022/01/10 02:01:48;;;;;;;10.48;5.88;;;;;;;0.63;100.00;98067.31;4087811;28;20054;-72
2022/01/10 02:03:50;;;;;;;8.25;4.63;;;;;;;0.54;100.00;98068.13;4088328;28;20395;-72
2022/01/10 02:05:50;;;;;;;9.45;5.30;;;;;;;0.46;100.00;98066.19;4089293;28;20051;-72
2022/01/10 02:07:50;;;;;;;10.57;5.07;;;;;;;0.41;100.00;98068.28;4087154;28;20538;-72
2022/01/10 02:09:51;;;;;;;12.20;5.15;;;;;;;0.36;100.00;98071.97;4089227;28;20047;-72
2022/01/10 02:11:51;;;;;;;10.80;5.82;;;;;;;0.29;100.00;98068.94;4089023;28;20058;-71
2022/01/10 02:13:52;;;;;;;9.43;4.88;;;;;;;0.24;100.00;98064.44;4087872;28;20059;-71
2022/01/10 02:16:04;;;;;;;11.20;4.70;;;;;;;0.19;100.00;98064.63;4087934;28;20502;-72
2022/01/10 02:18:05;;;;;;;14.18;5.40;;;;;;;0.21;100.00;98073.25;4090569;28;20112;-72
2022/01/10 02:20:07;;;;;;;10.93;4.65;;;;;;;0.19;100.00;98074.69;4093698;28;20035;-72
2022/01/10 02:22:07;;;;;;;8.80;5.55;;;;;;;0.18;100.00;98076.63;4087758;28;20223;-72
2022/01/10 02:24:08;;;;;;;8.65;5.30;;;;;;;0.20;100.00;98070.84;4089569;28;20499;-72
2022/01/10 02:26:08;;;;;;;9.32;5.03;;;;;;;0.15;100.00;98071.00;4088961;28;20035;-72
2022/01/10 02:28:09;;;;;;;10.07;5.38;;;;;;;0.14;100.00;98078.38;4087873;28;20636;-71
2022/01/10 02:30:10;;;;;;;10.95;5.40;;;;;;;0.13;100.00;98079.50;4091079;28;20104;-72
2022/01/10 02:32:10;;;;;;;10.50;4.90;;;;;;;0.10;100.00;98082.06;4088567;28;20110;-72
2022/01/10 02:34:11;;;;;;;14.55;6.03;;;;;;;0.08;100.00;98079.63;4087840;28;20066;-72
2022/01/10 02:38:52;;;;;;;8.77;4.63;;;;;;;0.17;100.00;98088.63;4103345;28;20056;-72
2022/01/10 02:40:54;;;;;;;8.93;4.93;;;;;;;0.13;100.00;98084.94;4087148;28;20039;-72
2022/01/10 02:42:55;;;;;;;11.52;5.30;;;;;;;0.11;100.00;98086.38;4088500;28;20047;-72
2022/01/10 02:44:55;;;;;;;10.10;5.75;;;;;;;0.08;100.00;98090.50;4087977;28;20040;-72
2022/01/10 02:46:56;;;;;;;12.05;5.35;;;;;;;0.04;100.00;98089.56;4086803;28;20043;-72
2022/01/10 02:48:56;;;;;;;12.55;6.00;;;;;;;0.03;100.00;98095.34;4088740;28;20214;-72
2022/01/10 02:50:57;;;;;;;10.75;5.05;;;;;;;0.03;100.00;98090.69;4087280;28;20043;-71
2022/01/10 02:52:57;;;;;;;9.75;5.15;;;;;;;0.06;100.00;98089.25;4087540;28;20452;-72
2022/01/10 02:55:01;;;;;;;12.52;5.22;;;;;;;0.05;100.00;98101.25;4088265;28;20522;-71
2022/01/10 02:57:01;;;;;;;9.48;4.43;;;;;;;0.02;100.00;98110.84;4087142;28;20062;-72
2022/01/10 02:59:02;;;;;;;12.18;5.20;;;;;;;-0.03;100.00;98111.78;4090964;28;20038;-71
2022/01/10 03:01:03;;;;;;;10.73;5.30;;;;;;;-0.06;100.00;98107.00;4088052;28;20090;-72
2022/01/10 03:03:06;;;;;;;15.60;4.97;;;;;;;-0.03;100.00;98119.94;4088010;28;20338;-72
2022/01/10 03:05:08;;;;;;;10.85;5.50;;;;;;;-0.02;100.00;98124.28;4087142;28;20035;-72
2022/01/10 03:07:08;;;;;;;9.77;5.20;;;;;;;-0.03;100.00;98117.22;4090078;28;20051;-71
2022/01/10 03:09:10;;;;;;;9.73;4.93;;;;;;;-0.06;100.00;98126.03;4093460;28;20054;-72
2022/01/10 03:11:11;;;;;;;9.55;4.82;;;;;;;-0.06;100.00;98126.03;4090477;28;20047;-71
2022/01/10 03:13:11;;;;;;;16.02;4.95;;;;;;;-0.06;100.00;98138.84;4088174;28;20440;-72
2022/01/10 03:15:12;;;;;;;10.55;5.10;;;;;;;-0.04;100.00;98142.03;4087530;28;20050;-72
2022/01/10 03:17:13;;;;;;;9.50;5.25;;;;;;;-0.06;100.00;98147.78;4086631;28;20113;-72
2022/01/10 03:19:13;;;;;;;11.90;5.60;;;;;;;-0.07;100.00;98154.34;4088029;28;20150;-72
2022/01/10 03:21:14;;;;;;;13.45;5.28;;;;;;;-0.03;100.00;98157.22;4087939;28;20044;-72
2022/01/10 03:23:14;;;;;;;10.35;5.30;;;;;;;0.00;100.00;98159.34;4087503;28;20090;-72
2022/01/10 03:25:15;;;;;;;11.13;5.30;;;;;;;-0.02;100.00;98162.34;4087208;28;20498;-72
2022/01/10 03:27:15;;;;;;;9.27;5.20;;;;;;;0.05;100.00;98166.53;4087069;28;20095;-72
2022/01/10 03:29:15;;;;;;;12.80;5.38;;;;;;;0.01;100.00;98171.00;4087186;28;20177;-72
2022/01/10 03:31:17;;;;;;;7.68;4.97;;;;;;;0.06;100.00;98168.94;4087965;28;20062;-72
2022/01/10 03:33:17;;;;;;;9.73;4.72;;;;;;;0.07;100.00;98167.00;4092109;28;20055;-72
2022/01/10 03:35:17;;;;;;;10.05;4.68;;;;;;;0.06;100.00;98165.41;4087031;28;20070;-72
2022/01/10 03:37:18;;;;;;;9.63;4.53;;;;;;;0.06;100.00;98171.66;4089613;28;20097;-72
2022/01/10 03:39:19;;;;;;;10.20;4.93;;;;;;;0.05;100.00;98171.97;4087467;28;20132;-71
2022/01/10 03:41:19;;;;;;;9.10;4.93;;;;;;;0.08;100.00;98179.47;4088903;28;20058;-72
2022/01/10 03:43:20;;;;;;;11.45;4.90;;;;;;;0.10;100.00;98188.94;4171495;28;20735;-72
2022/01/10 03:45:20;;;;;;;8.93;4.70;;;;;;;0.14;100.00;98189.91;4095013;28;20050;-72
2022/01/10 03:47:21;;;;;;;10.10;4.60;;;;;;;0.10;100.00;98194.41;4093329;28;20447;-71
2022/01/10 03:49:23;;;;;;;8.43;4.03;;;;;;;0.07;100.00;98194.22;4089745;28;20058;-72
2022/01/10 03:51:23;;;;;;;11.55;4.40;;;;;;;0.03;100.00;98198.69;4090016;28;20076;-72
2022/01/10 03:53:23;;;;;;;8.18;4.78;;;;;;;-0.01;100.00;98193.88;4089823;28;20467;-72
2022/01/10 03:55:24;;;;;;;11.05;4.97;;;;;;;-0.03;100.00;98204.25;4091138;28;20050;-72
2022/01/10 03:57:24;;;;;;;9.85;5.00;;;;;;;-0.04;100.00;98208.09;4088303;28;20095;-72
2022/01/10 03:59:25;;;;;;;9.93;4.97;;;;;;;-0.04;100.00;98210.81;4089614;28;20108;-72
2022/01/10 04:01:25;;;;;;;10.13;5.32;;;;;;;-0.05;100.00;98214.66;4095295;28;20058;-72
2022/01/10 04:03:26;;;;;;;10.68;5.55;;;;;;;-0.09;100.00;98221.84;4089127;28;20047;-72
2022/01/10 04:05:26;;;;;;;13.98;5.47;;;;;;;-0.09;100.00;98230.00;4090430;28;20048;-72
2022/01/10 04:07:26;;;;;;;15.18;5.40;;;;;;;-0.10;100.00;98228.38;4090055;28;20049;-72
2022/01/10 04:09:27;;;;;;;9.77;5.93;;;;;;;-0.08;100.00;98237.06;4091003;28;20211;-71
2022/01/10 04:11:27;;;;;;;8.40;5.03;;;;;;;-0.09;100.00;98243.59;4088619;28;20043;-72
2022/01/10 04:13:28;;;;;;;8.23;5.47;;;;;;;-0.06;100.00;98256.56;4090739;28;20100;-72
2022/01/10 04:15:28;;;;;;;10.07;4.88;;;;;;;-0.07;100.00;98254.19;4089824;28;20055;-72
2022/01/10 04:17:28;;;;;;;10.05;5.13;;;;;;;-0.02;100.00;98252.09;4087880;28;20150;-72
2022/01/10 04:19:29;;;;;;;10.25;5.75;;;;;;;-0.01;100.00;98263.78;4090526;28;20043;-72
2022/01/10 04:21:29;;;;;;;11.00;5.88;;;;;;;0.01;100.00;98266.22;4092944;28;20062;-71
2022/01/10 04:23:30;;;;;;;10.55;5.18;;;;;;;0.01;100.00;98260.78;4092712;28;20392;-72
2022/01/10 04:25:30;;;;;;;11.82;5.60;;;;;;;0.01;100.00;98271.66;4089029;28;20044;-71
2022/01/10 04:27:32;;;;;;;8.52;4.85;;;;;;;0.00;100.00;98273.56;4089537;28;20561;-71
2022/01/10 04:29:32;;;;;;;8.90;5.05;;;;;;;0.04;100.00;98288.13;4089299;28;20047;-72
2022/01/10 04:31:32;;;;;;;10.43;4.32;;;;;;;0.03;100.00;98286.53;4090827;28;20059;-72
2022/01/10 04:33:34;;;;;;;11.07;5.05;;;;;;;0.05;100.00;98294.38;4091510;28;20510;-72
2022/01/10 04:35:34;;;;;;;10.88;5.07;;;;;;;0.07;100.00;98298.38;4089580;28;20418;-71
2022/01/10 04:37:35;;;;;;;11.63;5.53;;;;;;;0.14;100.00;98298.72;4089234;28;20050;-72
2022/01/10 04:39:35;;;;;;;9.93;5.43;;;;;;;0.18;100.00;98307.09;4088876;28;20100;-72
2022/01/10 04:41:37;;;;;;;14.43;6.38;;;;;;;0.17;100.00;98314.44;4089615;28;20043;-72
2022/01/10 04:43:38;;;;;;;12.02;5.63;;;;;;;0.18;100.00;98309.81;4088491;28;20055;-72
2022/01/10 04:45:39;;;;;;;12.40;5.72;;;;;;;0.22;100.00;98318.94;4089356;28;20093;-71
2022/01/10 04:47:39;;;;;;;12.48;5.70;;;;;;;0.22;100.00;98327.91;4090405;28;20051;-72
2022/01/10 04:51:59;;;;;;;9.82;5.40;;;;;;;0.23;100.00;98336.84;4089427;28;20092;-72
2022/01/10 04:53:59;;;;;;;10.00;5.50;;;;;;;0.21;100.00;98337.19;4090638;28;20055;-72
2022/01/10 04:55:59;;;;;;;10.75;5.72;;;;;;;0.24;100.00;98347.44;4091397;28;20043;-72
2022/01/10 04:58:00;;;;;;;11.73;6.00;;;;;;;0.26;100.00;98352.56;4087741;28;20364;-72
2022/01/10 05:00:00;;;;;;;12.27;6.40;;;;;;;0.28;100.00;98355.78;4089385;28;20299;-72
2022/01/10 05:02:00;;;;;;;12.75;5.80;;;;;;;0.27;100.00;98348.75;4091368;28;20120;-72
2022/01/10 05:04:01;;;;;;;10.23;5.53;;;;;;;0.28;100.00;98364.75;4088292;28;20047;-72
2022/01/10 05:06:02;;;;;;;11.75;5.93;;;;;;;0.27;100.00;98363.16;4088678;28;20109;-72
2022/01/10 05:08:02;;;;;;;12.57;7.22;;;;;;;0.27;100.00;98368.59;4089055;28;20031;-72
2022/01/10 05:10:03;;;;;;;15.18;7.18;;;;;;;0.29;100.00;98371.00;4090498;28;20027;-72
2022/01/10 05:12:04;;;;;;;11.23;6.43;;;;;;;0.31;100.00;98373.41;4088083;28;20109;-72
2022/01/10 05:14:04;;;;;;;13.00;6.80;;;;;;;0.32;100.00;98372.28;4089444;28;20035;-72
2022/01/10 05:16:05;;;;;;;10.82;6.65;;;;;;;0.31;100.00;98381.56;4089250;28;20184;-72
2022/01/10 05:18:05;;;;;;;10.43;5.78;;;;;;;0.32;100.00;98377.72;4087409;28;20471;-72
2022/01/10 05:20:06;;;;;;;11.85;5.80;;;;;;;0.32;100.00;98377.72;4089759;28;20039;-72
2022/01/10 05:22:07;;;;;;;10.18;5.72;;;;;;;0.36;100.00;98389.59;4089251;28;20464;-72
2022/01/10 05:24:08;;;;;;;13.15;5.75;;;;;;;0.38;100.00;98395.53;4088536;28;20097;-72
2022/01/10 05:26:08;;;;;;;10.57;5.07;;;;;;;0.42;100.00;98396.53;4088830;28;20058;-72
2022/01/10 05:28:11;;;;;;;10.80;5.78;;;;;;;0.39;100.00;98399.84;4088799;28;20086;-72
2022/01/10 05:30:11;;;;;;;11.10;5.47;;;;;;;0.43;100.00;98409.81;4107690;28;20042;-72
2022/01/10 05:32:12;;;;;;;11.77;5.75;;;;;;;0.43;100.00;98406.28;4094183;28;20475;-72
2022/01/10 05:34:12;;;;;;;12.25;5.78;;;;;;;0.44;100.00;98407.88;4091649;28;20039;-72
2022/01/10 05:36:13;;;;;;;13.23;5.70;;;;;;;0.45;100.00;98417.66;4088519;28;20035;-72
2022/01/10 05:38:13;;;;;;;8.68;5.40;;;;;;;0.43;100.00;98417.97;4088338;28;20157;-72
2022/01/10 05:40:15;;;;;;;9.38;5.13;;;;;;;0.40;100.00;98424.03;4092890;28;20039;-72
2022/01/10 05:42:18;;;;;;;15.63;6.43;;;;;;;0.38;100.00;98417.28;4089129;28;20208;-72
2022/01/10 05:44:18;;;;;;;10.80;5.65;;;;;;;0.37;100.00;98424.66;4088522;28;20035;-71
2022/01/10 05:46:20;;;;;;;12.35;5.57;;;;;;;0.39;100.00;98435.22;4088724;28;20587;-72
2022/01/10 05:48:25;;;;;;;11.83;5.70;;;;;;;0.38;100.00;98433.63;4088039;28;20452;-72
2022/01/10 05:50:34;;;;;;;11.75;5.63;;;;;;;0.37;100.00;98441.00;4088308;28;20510;-71
2022/01/10 05:52:34;;;;;;;11.15;5.78;;;;;;;0.38;100.00;98441.78;4089013;28;20055;-72
2022/01/10 05:54:35;;;;;;;11.85;6.30;;;;;;;0.37;100.00;98448.34;4102296;28;20338;-72
2022/01/10 05:56:35;;;;;;;13.20;5.30;;;;;;;0.38;100.00;98442.59;4090742;28;20052;-72
2022/01/10 05:58:36;;;;;;;12.25;5.82;;;;;;;0.37;100.00;98454.59;4087806;28;20052;-72
2022/01/10 06:00:36;;;;;;;12.52;6.22;;;;;;;0.38;100.00;98458.94;4088392;28;20047;-71
2022/01/10 06:02:36;;;;;;;10.60;6.45;;;;;;;0.37;100.00;98453.78;4088799;28;20058;-72
2022/01/10 06:04:37;;;;;;;12.57;6.45;;;;;;;0.40;100.00;98459.41;4087711;28;20047;-72
2022/01/10 06:06:37;;;;;;;12.40;8.98;;;;;;;0.38;100.00;98463.56;4087683;28;20149;-72
2022/01/10 06:08:37;;;;;;;14.27;7.88;;;;;;;0.39;100.00;98463.25;4105814;28;20046;-72
2022/01/10 06:10:39;;;;;;;12.82;7.45;;;;;;;0.39;100.00;98474.13;4103691;28;20169;-72
2022/01/10 06:12:39;;;;;;;14.23;8.10;;;;;;;0.40;100.00;98480.38;4089396;28;20343;-72
2022/01/10 06:14:40;;;;;;;15.48;8.43;;;;;;;0.42;100.00;98492.59;4090341;28;20370;-72
2022/01/10 06:16:40;;;;;;;14.05;8.20;;;;;;;0.40;100.00;98478.47;4096182;28;20088;-72
2022/01/10 06:18:40;;;;;;;13.65;7.80;;;;;;;0.43;100.00;98491.47;4102333;28;20134;-72
2022/01/10 06:20:41;;;;;;;15.52;8.35;;;;;;;0.43;100.00;98498.84;4093235;28;20134;-72
2022/01/10 06:22:42;;;;;;;14.27;7.82;;;;;;;0.43;100.00;98496.91;4088619;28;20277;-72
2022/01/10 06:24:43;;;;;;;13.82;7.18;;;;;;;0.45;100.00;98500.13;4088049;28;20505;-72
2022/01/10 06:26:43;;;;;;;11.95;6.68;;;;;;;0.45;100.00;98496.59;4086193;28;20132;-72
2022/01/10 06:28:43;;;;;;;10.93;5.88;;;;;;;0.45;100.00;98500.13;4091108;28;20047;-72
2022/01/10 06:30:44;;;;;;;12.10;6.30;;;;;;;0.43;100.00;98504.28;4094317;28;20591;-72
2022/01/10 06:32:46;;;;;;;11.82;6.65;;;;;;;0.42;100.00;98503.47;4092110;28;20047;-72
2022/01/10 06:34:46;;;;;;;12.10;6.63;;;;;;;0.45;100.00;98516.44;4093844;28;20326;-72
2022/01/10 06:36:47;;;;;;;13.27;7.13;;;;;;;0.45;100.00;98521.09;4090497;28;20120;-72
2022/01/10 06:38:47;;;;;;;14.55;7.03;;;;;;;0.43;100.00;98526.84;4087135;28;20142;-72
2022/01/10 06:40:47;;;;;;;13.00;6.47;;;;;;;0.44;100.00;98525.75;4091070;28;20035;-72
2022/01/10 06:42:48;;;;;;;11.85;6.97;;;;;;;0.45;100.00;98524.63;4087808;28;20082;-72
2022/01/10 06:44:48;;;;;;;12.07;7.78;;;;;;;0.46;100.00;98528.94;4087571;28;20043;-72
2022/01/10 06:46:49;;;;;;;13.30;7.30;;;;;;;0.45;100.00;98531.97;4091469;28;20315;-72
2022/01/10 06:48:49;;;;;;;12.85;7.65;;;;;;;0.45;100.00;98540.16;4090670;28;20638;-72
2022/01/10 06:50:49;;;;;;;16.58;7.95;;;;;;;0.44;100.00;98547.50;4089920;28;20077;-72
2022/01/10 06:52:53;;;;;;;14.55;8.07;;;;;;;0.45;100.00;98551.84;4091053;28;20045;-72
2022/01/10 06:54:54;;;;;;;14.68;7.75;;;;;;;0.45;100.00;98556.47;4088811;28;20043;-72
2022/01/10 06:56:58;;;;;;;20.58;8.35;;;;;;;0.48;100.00;98555.84;4089264;28;20043;-72
2022/01/10 06:58:58;;;;;;;13.40;7.70;;;;;;;0.47;100.00;98556.97;4090425;28;20050;-72
2022/01/10 07:00:59;;;;;;;16.60;7.55;;;;;;;0.45;100.00;98553.75;4095917;28;20051;-72
2022/01/10 07:02:59;;;;;;;16.70;8.80;;;;;;;0.47;100.00;98571.38;4089391;28;20273;-72
2022/01/10 07:04:59;;;;;;;18.02;8.63;;;;;;;0.45;100.00;98570.91;4091117;28;20142;-72
2022/01/10 07:07:00;;;;;;;15.35;8.70;;;;;;;0.46;100.00;98575.22;4089853;28;20103;-72
2022/01/10 07:09:00;;;;;;;15.23;7.82;;;;;;;0.47;100.00;98586.91;4088192;28;20055;-72
2022/01/10 07:11:00;;;;;;;19.70;9.85;;;;;;;0.51;100.00;98580.56;4090747;28;20072;-72
2022/01/10 07:13:01;;;;;;;17.10;9.30;;;;;;;0.49;100.00;98587.41;4089881;28;20126;-72
2022/01/10 07:15:02;;;;;;;18.45;8.95;;;;;;;0.51;100.00;98585.19;4088858;28;20457;-72
2022/01/10 07:17:03;;;;;;;15.48;8.50;;;;;;;0.52;100.00;98589.53;4091449;28;20047;-72
2022/01/10 07:19:05;;;;;;;20.60;9.13;;;;;;;0.55;100.00;98600.59;4092277;28;20039;-72
2022/01/10 07:21:05;;;;;;;20.60;9.68;;;;;;;0.60;100.00;98601.59;4091109;28;20043;-72
2022/01/10 07:23:06;;;;;;;19.17;8.63;;;;;;;0.63;100.00;98607.22;4093582;28;20100;-72
2022/01/10 07:25:06;;;;;;;29.45;14.20;;;;;;;0.64;100.00;98613.47;4092771;28;20078;-72
2022/01/10 07:27:07;;;;;;;23.30;12.25;;;;;;;0.62;100.00;98611.06;4092814;28;20041;-72
2022/01/10 07:29:08;;;;;;;20.73;11.45;;;;;;;0.63;100.00;98620.03;4111255;28;20051;-72
2022/01/10 07:31:08;;;;;;;13.48;7.72;;;;;;;0.61;100.00;98616.81;4103213;28;20051;-72
2022/01/10 07:33:09;;;;;;;16.30;8.55;;;;;;;0.65;100.00;98625.97;4100922;28;20152;-72
2022/01/10 07:35:10;;;;;;;17.85;9.00;;;;;;;0.63;100.00;98628.19;4098541;28;20051;-72
2022/01/10 07:37:11;;;;;;;18.00;9.17;;;;;;;0.64;100.00;98632.53;4106585;28;20049;-72
2022/01/10 07:39:11;;;;;;;17.10;8.15;;;;;;;0.66;100.00;98638.47;4100275;28;20047;-72
2022/01/10 07:41:12;;;;;;;18.15;8.13;;;;;;;0.68;100.00;98633.53;4100988;28;20453;-72
2022/01/10 07:43:13;;;;;;;15.52;8.73;;;;;;;0.69;100.00;98643.31;4099418;28;20047;-72
2022/01/10 07:45:14;;;;;;;16.58;7.70;;;;;;;0.68;100.00;98647.94;4099195;28;20291;-72
2022/01/10 07:47:14;;;;;;;15.05;8.77;;;;;;;0.69;100.00;98655.00;4093583;28;20051;-72
2022/01/10 07:49:15;;;;;;;20.77;9.00;;;;;;;0.65;100.00;98645.81;4090087;28;20158;-72
2022/01/10 07:51:15;;;;;;;19.63;9.23;;;;;;;0.66;100.00;98662.97;4091106;28;20073;-72
2022/01/10 07:53:16;;;;;;;26.27;10.18;;;;;;;0.73;100.00;98677.78;4088606;28;20043;-72
2022/01/10 07:55:16;;;;;;;19.70;10.30;;;;;;;0.73;100.00;98660.63;4089815;28;20054;-72
2022/01/10 07:57:16;;;;;;;15.00;9.40;;;;;;;0.80;100.00;98677.34;4093084;28;20043;-72
2022/01/10 07:59:17;;;;;;;13.85;8.05;;;;;;;0.84;100.00;98670.19;4090110;28;20043;-72
2022/01/10 08:01:19;;;;;;;22.45;8.32;;;;;;;0.82;100.00;98667.75;4108023;28;20059;-72
2022/01/10 08:03:20;;;;;;;12.07;7.00;;;;;;;0.95;100.00;98673.44;4093129;28;20047;-72
2022/01/10 08:05:20;;;;;;;18.15;8.40;;;;;;;0.91;100.00;98676.00;4089051;28;20054;-72
2022/01/10 08:07:20;;;;;;;15.20;6.90;;;;;;;0.93;100.00;98681.94;4087832;28;20109;-72
2022/01/10 08:09:21;;;;;;;16.20;7.72;;;;;;;0.92;100.00;98683.06;4093564;28;20357;-72
2022/01/10 08:11:26;;;;;;;14.90;8.18;;;;;;;0.94;100.00;98693.66;4089402;28;20039;-72
2022/01/10 08:13:26;;;;;;;16.20;7.30;;;;;;;0.92;100.00;98684.97;4090662;28;20109;-72
2022/01/10 08:15:27;;;;;;;14.20;7.97;;;;;;;0.87;100.00;98696.00;4089784;28;20104;-72
2022/01/10 08:17:27;;;;;;;20.02;8.20;;;;;;;0.84;100.00;98697.41;4088869;28;20390;-72
2022/01/10 08:19:30;;;;;;;17.55;8.82;;;;;;;0.84;100.00;98700.94;4089867;28;20364;-72
2022/01/10 08:21:30;;;;;;;19.25;7.70;;;;;;;0.96;100.00;98711.28;4089499;28;20177;-72
2022/01/10 08:23:31;;;;;;;17.23;8.15;;;;;;;0.91;100.00;98708.69;4090728;28;20087;-72
2022/01/10 08:25:31;;;;;;;16.02;8.50;;;;;;;0.95;100.00;98720.56;4090365;28;20055;-72
2022/01/10 08:27:32;;;;;;;20.45;9.85;;;;;;;0.97;100.00;98722.97;4089979;28;20329;-72
2022/01/10 08:29:32;;;;;;;20.55;9.55;;;;;;;0.96;100.00;98729.56;4095661;28;20126;-72
2022/01/10 08:31:33;;;;;;;17.05;8.23;;;;;;;0.99;100.00;98724.28;4094902;28;20055;-72
2022/01/10 08:33:34;;;;;;;16.77;7.75;;;;;;;1.09;100.00;98725.97;4089224;28;20501;-72
2022/01/10 08:35:34;;;;;;;15.00;7.95;;;;;;;1.14;100.00;98739.47;4088879;28;20043;-72
2022/01/10 08:37:34;;;;;;;20.58;9.25;;;;;;;1.14;100.00;98736.72;4089889;28;20069;-72
2022/01/10 08:39:35;;;;;;;21.35;8.68;;;;;;;1.21;100.00;98752.66;4090806;28;20539;-72
2022/01/10 08:41:36;;;;;;;15.60;8.02;;;;;;;1.25;100.00;98748.22;4095966;28;20384;-72
2022/01/10 08:43:36;;;;;;;18.73;8.55;;;;;;;1.27;100.00;98745.97;4094710;28;20062;-72
2022/01/10 08:45:38;;;;;;;15.48;7.93;;;;;;;1.25;100.00;98754.47;4088306;28;20623;-72
2022/01/10 08:47:39;;;;;;;14.17;7.43;;;;;;;1.30;100.00;98758.97;4088223;28;20510;-72
2022/01/10 08:49:39;;;;;;;15.00;8.00;;;;;;;1.30;100.00;98756.25;4089864;28;20036;-72
2022/01/10 08:51:41;;;;;;;21.00;8.25;;;;;;;1.32;100.00;98752.09;4093889;28;20082;-72
2022/01/10 08:53:41;;;;;;;15.13;7.68;;;;;;;1.34;100.00;98758.06;4088125;28;20044;-72
2022/01/10 08:55:42;;;;;;;15.40;7.82;;;;;;;1.35;100.00;98759.66;4089662;28;20066;-72
2022/01/10 08:57:42;;;;;;;17.02;8.55;;;;;;;1.35;100.00;98770.56;4088656;28;20043;-72
2022/01/10 08:59:43;;;;;;;15.07;8.55;;;;;;;1.35;100.00;98770.56;4088120;28;20054;-72
2022/01/10 09:01:46;;;;;;;15.02;9.50;;;;;;;1.35;100.00;98775.22;4089507;28;20043;-72
2022/01/10 09:03:46;;;;;;;15.32;8.57;;;;;;;1.37;100.00;98775.72;4089575;28;20053;-72
2022/01/10 09:05:47;;;;;;;18.80;9.00;;;;;;;1.45;100.00;98785.06;4089004;28;20141;-72
2022/01/10 09:07:48;;;;;;;20.58;8.45;;;;;;;1.47;100.00;98789.09;4088151;28;20052;-72
2022/01/10 09:09:48;;;;;;;15.52;8.45;;;;;;;1.54;100.00;98786.72;4188511;28;20128;-72
2022/01/10 09:11:49;;;;;;;19.73;8.02;;;;;;;1.53;100.00;98789.78;4089352;28;20162;-72
2022/01/10 09:13:50;;;;;;;20.83;8.25;;;;;;;1.54;100.00;98802.28;4088668;28;20558;-72
2022/01/10 09:15:50;;;;;;;16.58;8.57;;;;;;;1.57;100.00;98804.38;4089686;28;20391;-72
2022/01/10 09:17:51;;;;;;;17.80;8.75;;;;;;;1.54;100.00;98805.00;4088503;28;20126;-72
2022/01/10 09:19:51;;;;;;;16.40;8.45;;;;;;;1.53;100.00;98808.84;4089312;28;20058;-72
2022/01/10 09:21:52;;;;;;;14.38;7.80;;;;;;;1.62;100.00;98810.53;4091367;28;20126;-72
2022/01/10 09:23:52;;;;;;;15.05;8.93;;;;;;;1.63;100.00;98814.84;4088919;28;20228;-72
2022/01/10 09:25:53;;;;;;;17.05;8.38;;;;;;;1.64;100.00;98818.38;4089642;28;20074;-72
2022/01/10 09:27:54;;;;;;;16.02;8.30;;;;;;;1.70;100.00;98828.06;4091022;28;20146;-72
2022/01/10 09:29:54;;;;;;;17.00;8.27;;;;;;;1.73;100.00;98830.16;4089466;28;20061;-72
2022/01/10 09:31:55;;;;;;;18.77;7.80;;;;;;;1.80;100.00;98837.91;4088523;28;20043;-72
2022/01/10 09:33:56;;;;;;;16.90;9.20;;;;;;;1.81;100.00;98843.06;4088580;28;20320;-72
2022/01/10 09:35:56;;;;;;;20.48;8.60;;;;;;;1.86;100.00;98842.94;4087842;28;20085;-72
2022/01/10 09:37:57;;;;;;;14.98;8.20;;;;;;;1.87;100.00;98839.09;4087925;28;20209;-72